Grizzly Air Cargo 5091


PANC
Ted Stevens Anchorage International Airport
Anchorage, Alaska, US
PHNL
Daniel K Inouye International Airport
Honolulu, Hawaii, US

Route Details

Aircraft Information
Primary: Boeing 767-300BDSF
Backup: Not Available
Route Data
Distance: 2413nm
Sched. Duration: 6h 04m
Avg. Duration: 6h 29m (+25m)
Times Flown: 2
Recm'd Route: HOM 5500N/15100W 5000N/15100W 4500N/15100W 4000N/15200W 3500N/15300W 3000N/15400W ZOULU ZIGIE MAGGI3
Planned Altitude: 35,000ft
Origin Wx: PANC 061053Z 28005KT 10SM BKN023 BKN026 BKN047 14/11 A3003 RMK AO2 SLP169 T01390106 $
Dest. Wx: PHNL 061053Z 06006KT 10SM FEW024 FEW050 25/20 A3003 RMK AO2 SLP168 T02500200 $
Notes: OPERATED FOR GRIZZLY AIR CARGO

Financial History
Total Freight: 117,842lbs
Average Load: 58,921lbs/flt
Fuel Used: 131,479lbs
Avg. Fuel Used: 65,740lbs/flt
Fuel Expense: $170,923
Avg. Fuel Expense: $85,461
Avg. Fuel Cost: $1.30/lbs
Total Gross Income: $193,261
Pilot Pay: $498
Total Expenses: $20,976
Total Revenue: $-1,777
Average Revenue: $96,630.44